Time;durP1;ratioP1;P1;durP2;ratioP2;P2;SDS_P1;SDS_P2;PMS_P1;PMS_P2;Temp;Humidity;BMP_temperature;BMP_pressure;BME280_temperature;BME280_humidity;BME280_pressure;Samples;Min_cycle;Max_cycle;Signal;HPM_P1;HPM_P2
2021/12/29 00:01:58;;;;;;;8.70;5.93;;;;;;;10.83;87.09;98314.34;5091773;28;20359;-52
2021/12/29 00:04:27;;;;;;;13.70;8.88;;;;;;;11.02;86.93;98317.84;5091860;28;20028;-51
2021/12/29 00:06:56;;;;;;;11.20;5.32;;;;;;;11.34;86.79;98315.22;5091861;28;20023;-51
2021/12/29 00:09:23;;;;;;;12.25;7.28;;;;;;;11.51;86.18;98320.72;5091850;28;20020;-52
2021/12/29 00:11:49;;;;;;;21.73;16.75;;;;;;;11.60;85.98;98319.44;5091826;28;20521;-52
2021/12/29 00:14:15;;;;;;;22.92;16.33;;;;;;;11.71;85.93;98331.88;5090446;28;20038;-52
2021/12/29 00:16:41;;;;;;;46.78;13.32;;;;;;;11.75;85.69;98327.81;5091711;28;20028;-51
2021/12/29 00:19:07;;;;;;;11.05;5.68;;;;;;;11.45;84.37;98343.44;5091737;28;20073;-51
2021/12/29 00:21:34;;;;;;;9.13;6.25;;;;;;;11.18;84.44;98350.69;5091728;28;20020;-52
2021/12/29 00:24:02;;;;;;;58.65;14.88;;;;;;;10.94;84.32;98339.91;5091702;28;20031;-51
2021/12/29 00:26:30;;;;;;;12.93;8.70;;;;;;;10.86;84.78;98355.09;5091672;28;20038;-51
2021/12/29 00:28:59;;;;;;;8.60;6.45;;;;;;;10.78;85.13;98356.97;5091687;28;20107;-51
2021/12/29 00:31:28;;;;;;;35.58;8.02;;;;;;;10.74;84.82;98355.75;5091615;28;20043;-52
2021/12/29 00:33:54;;;;;;;110.28;12.13;;;;;;;10.76;85.15;98355.56;5090046;28;20040;-51
2021/12/29 00:36:20;;;;;;;231.32;38.42;;;;;;;10.74;85.38;98353.13;5091539;28;20027;-51
2021/12/29 00:38:46;;;;;;;19.20;9.50;;;;;;;10.81;85.49;98363.63;5091580;28;20012;-51
2021/12/29 00:41:12;;;;;;;9.95;8.30;;;;;;;10.86;85.60;98353.28;5092251;28;20389;-51
2021/12/29 00:43:38;;;;;;;112.22;18.38;;;;;;;10.94;85.42;98344.34;5095412;28;20020;-51
2021/12/29 00:46:07;;;;;;;83.10;61.22;;;;;;;10.98;85.66;98353.44;5095459;28;20156;-51
2021/12/29 00:48:39;;;;;;;54.33;44.40;;;;;;;11.23;86.07;98358.75;5095443;28;20020;-51
2021/12/29 00:51:06;;;;;;;21.70;18.42;;;;;;;11.44;85.87;98354.94;5095455;28;20024;-51
2021/12/29 00:53:33;;;;;;;152.98;14.65;;;;;;;11.47;85.30;98353.69;5095290;28;20031;-51
2021/12/29 00:55:59;;;;;;;25.77;13.25;;;;;;;11.27;84.54;98361.72;5095276;28;20028;-50
2021/12/29 00:58:25;;;;;;;21.63;16.27;;;;;;;11.15;84.87;98364.25;5095333;28;20497;-51
2021/12/29 01:00:51;;;;;;;13.82;9.88;;;;;;;11.00;84.47;98367.16;5095171;28;20024;-51
2021/12/29 01:03:17;;;;;;;29.40;15.63;;;;;;;10.89;84.66;98373.88;5095007;28;20055;-51
2021/12/29 01:05:43;;;;;;;16.38;10.05;;;;;;;10.92;85.27;98364.78;5093775;28;20502;-50
2021/12/29 01:08:10;;;;;;;39.58;10.18;;;;;;;10.91;84.75;98376.31;5093731;28;20568;-51
2021/12/29 01:10:37;;;;;;;20.35;8.20;;;;;;;10.82;84.51;98380.16;5094978;28;20054;-50
2021/12/29 01:13:06;;;;;;;14.95;5.85;;;;;;;10.82;85.26;98383.59;5094977;28;20021;-50
2021/12/29 01:15:55;;;;;;;19.35;10.38;;;;;;;10.87;85.06;98367.25;5094893;28;20031;-51
2021/12/29 01:18:21;;;;;;;12.57;6.90;;;;;;;10.68;84.43;98387.28;5094885;28;20077;-51
2021/12/29 01:20:47;;;;;;;53.17;8.68;;;;;;;10.56;84.22;98403.69;5094825;28;20019;-50
2021/12/29 01:23:12;;;;;;;62.25;9.75;;;;;;;10.51;84.83;98400.88;5093378;28;20020;-50
2021/12/29 01:25:38;;;;;;;30.35;6.40;;;;;;;10.47;84.57;98397.06;5094714;28;20493;-50
2021/12/29 01:28:04;;;;;;;6.65;5.07;;;;;;;10.44;84.72;98409.78;5094713;28;20026;-50
2021/12/29 01:30:29;;;;;;;14.35;7.75;;;;;;;10.35;84.84;98411.81;5093310;28;20509;-50
2021/12/29 01:32:55;;;;;;;39.40;7.30;;;;;;;10.26;84.47;98400.72;5094646;28;20024;-50
2021/12/29 01:35:21;;;;;;;6.47;5.22;;;;;;;10.14;84.62;98413.66;5094324;28;20071;-50
2021/12/29 01:37:47;;;;;;;15.10;7.40;;;;;;;10.14;85.20;98418.91;5094449;28;20506;-51
2021/12/29 01:40:15;;;;;;;30.77;5.55;;;;;;;10.20;84.90;98423.31;5094426;28;20035;-50
2021/12/29 01:42:42;;;;;;;9.65;6.65;;;;;;;10.17;85.15;98415.84;5094262;28;20035;-50
2021/12/29 01:45:09;;;;;;;10.70;5.82;;;;;;;10.19;85.35;98421.69;5094328;28;20020;-50
2021/12/29 01:47:35;;;;;;;9.68;6.53;;;;;;;10.30;85.34;98422.13;5092915;28;20055;-50
2021/12/29 01:50:03;;;;;;;19.98;8.05;;;;;;;10.27;85.34;98423.31;5094254;28;20483;-50
2021/12/29 01:52:34;;;;;;;6.50;5.45;;;;;;;10.23;84.95;98429.97;5093270;28;20115;-50
2021/12/29 01:55:00;;;;;;;14.10;5.50;;;;;;;10.18;85.17;98435.00;5093926;28;20024;-50
2021/12/29 01:57:26;;;;;;;6.20;4.47;;;;;;;10.14;85.20;98445.13;5094113;28;20016;-50
2021/12/29 01:59:51;;;;;;;10.63;7.10;;;;;;;10.14;85.38;98434.63;5094042;28;20051;-51
2021/12/29 02:02:19;;;;;;;10.63;5.93;;;;;;;10.15;85.41;98441.47;5093938;28;20493;-50
2021/12/29 02:04:46;;;;;;;7.03;4.75;;;;;;;10.13;84.97;98435.63;5093966;28;20091;-52
2021/12/29 02:07:12;;;;;;;6.32;4.47;;;;;;;10.05;84.80;98421.94;5093917;28;20032;-51
2021/12/29 02:09:39;;;;;;;13.05;6.25;;;;;;;9.95;85.01;98422.34;5093801;28;20111;-51
2021/12/29 02:12:05;;;;;;;10.43;4.82;;;;;;;10.02;85.55;98424.94;5093867;28;20030;-50
2021/12/29 02:14:32;;;;;;;11.98;5.25;;;;;;;9.99;85.05;98424.34;5093771;28;20024;-51
2021/12/29 02:16:58;;;;;;;6.25;4.40;;;;;;;10.13;85.76;98421.72;5093666;28;20088;-51
2021/12/29 02:19:25;;;;;;;7.65;4.80;;;;;;;10.13;85.26;98419.91;5093684;28;20072;-51
2021/12/29 02:22:08;;;;;;;11.75;7.03;;;;;;;10.07;85.20;98419.91;5093516;28;20508;-51
2021/12/29 02:24:38;;;;;;;17.25;9.50;;;;;;;10.13;85.82;98425.13;5093575;28;20062;-52
2021/12/29 02:27:06;;;;;;;6.30;4.45;;;;;;;10.17;85.47;98422.91;5093550;28;20043;-51
2021/12/29 02:29:33;;;;;;;5.28;2.97;;;;;;;10.09;85.24;98415.28;5093464;28;20020;-52
2021/12/29 02:31:59;;;;;;;38.63;21.30;;;;;;;10.05;85.52;98407.00;5093413;28;20024;-52
2021/12/29 02:34:25;;;;;;;9.43;7.22;;;;;;;10.08;85.14;98414.47;5093174;28;20044;-52
2021/12/29 02:36:51;;;;;;;9.98;7.60;;;;;;;10.16;85.93;98414.25;5093294;28;20536;-52
2021/12/29 02:39:20;;;;;;;8.63;6.45;;;;;;;10.39;86.62;98405.16;5093302;28;20035;-51
2021/12/29 02:41:52;;;;;;;23.38;16.45;;;;;;;10.41;86.23;98405.75;5093169;28;20012;-51
2021/12/29 02:44:25;;;;;;;8.55;6.85;;;;;;;10.36;86.02;98410.81;5093239;28;20489;-52
2021/12/29 02:46:52;;;;;;;12.32;9.50;;;;;;;10.38;86.35;98408.78;5093198;28;20508;-51
2021/12/29 02:49:18;;;;;;;17.08;11.25;;;;;;;10.52;86.56;98414.81;5093078;28;20031;-51
2021/12/29 02:51:44;;;;;;;6.25;5.15;;;;;;;10.54;86.16;98416.22;5091706;28;20031;-52
2021/12/29 02:54:10;;;;;;;4.93;4.25;;;;;;;10.39;85.53;98415.66;5093086;28;20405;-50
2021/12/29 02:56:36;;;;;;;9.07;8.10;;;;;;;10.30;85.77;98417.69;5093186;28;20020;-51
2021/12/29 02:59:03;;;;;;;9.68;6.95;;;;;;;10.20;85.60;98412.84;5091590;28;20077;-51
2021/12/29 03:01:29;;;;;;;8.60;6.22;;;;;;;10.16;85.93;98427.38;5091563;28;20099;-51
2021/12/29 03:03:56;;;;;;;34.22;24.63;;;;;;;10.24;86.58;98431.59;5090975;28;20024;-51
2021/12/29 03:06:22;;;;;;;11.95;7.88;;;;;;;10.41;86.77;98446.94;5092765;28;20023;-51
2021/12/29 03:08:50;;;;;;;6.57;5.70;;;;;;;10.54;86.46;98434.59;5091398;28;20024;-51
2021/12/29 03:11:15;;;;;;;12.27;7.55;;;;;;;10.53;86.19;98427.72;5092728;28;20073;-50
2021/12/29 03:13:42;;;;;;;14.45;9.60;;;;;;;10.62;85.99;98425.66;5092602;28;20020;-51
2021/12/29 03:16:08;;;;;;;9.73;7.18;;;;;;;10.64;85.81;98431.50;5091247;28;20027;-50
2021/12/29 03:18:34;;;;;;;23.48;18.70;;;;;;;10.63;85.52;98422.03;5092610;28;20375;-50
2021/12/29 03:21:00;;;;;;;14.48;11.50;;;;;;;10.55;85.54;98417.81;5092479;28;20020;-50
2021/12/29 03:23:26;;;;;;;9.55;7.50;;;;;;;10.56;85.60;98422.06;5092417;28;20049;-51
2021/12/29 03:25:52;;;;;;;11.30;7.93;;;;;;;10.65;85.70;98421.84;5091131;28;20424;-51
2021/12/29 03:28:21;;;;;;;31.08;26.75;;;;;;;10.70;85.69;98428.06;5092452;28;20409;-51
2021/12/29 03:30:51;;;;;;;20.05;14.27;;;;;;;10.52;85.31;98435.78;5092254;28;20020;-51
2021/12/29 03:33:18;;;;;;;20.88;11.55;;;;;;;10.48;86.06;98431.97;5092445;28;20030;-51
2021/12/29 03:35:51;;;;;;;11.82;7.20;;;;;;;10.45;86.07;98427.94;5092323;28;20437;-51
2021/12/29 03:38:20;;;;;;;7.78;5.13;;;;;;;10.42;86.11;98425.72;5091043;28;20043;-51
2021/12/29 03:40:46;;;;;;;6.82;4.50;;;;;;;10.58;86.25;98430.53;5092199;28;20085;-51
2021/12/29 03:43:13;;;;;;;8.20;4.57;;;;;;;10.67;86.28;98435.56;5092130;28;20035;-51
2021/12/29 03:45:44;;;;;;;10.18;5.25;;;;;;;10.88;87.05;98423.97;5092116;28;20024;-51
2021/12/29 03:48:11;;;;;;;30.73;21.33;;;;;;;11.19;87.38;98431.09;5092210;28;20027;-51
2021/12/29 03:50:38;;;;;;;11.05;7.00;;;;;;;11.33;86.92;98431.84;5090693;28;20051;-50
2021/12/29 03:53:04;;;;;;;10.98;6.10;;;;;;;11.38;86.69;98424.91;5092085;28;20056;-51
2021/12/29 03:55:31;;;;;;;12.98;9.35;;;;;;;11.50;86.56;98425.03;5092074;28;20027;-50
2021/12/29 03:57:56;;;;;;;11.40;8.82;;;;;;;11.62;86.42;98435.69;5091965;28;20016;-51
2021/12/29 04:00:23;;;;;;;18.17;14.57;;;;;;;11.71;86.28;98420.44;5091949;28;20505;-51
2021/12/29 04:02:49;;;;;;;12.23;8.40;;;;;;;11.76;86.18;98418.78;5091894;28;20089;-51
2021/12/29 04:05:18;;;;;;;7.05;5.13;;;;;;;11.77;85.85;98412.53;5091949;28;20498;-51
2021/12/29 04:07:44;;;;;;;8.85;5.15;;;;;;;11.66;85.70;98415.84;5091991;28;20055;-51
2021/12/29 04:10:11;;;;;;;54.42;40.63;;;;;;;11.60;85.63;98416.69;5091879;28;20034;-52
2021/12/29 04:12:41;;;;;;;11.00;7.38;;;;;;;11.37;84.44;98418.06;5091898;28;20024;-51
2021/12/29 04:15:09;;;;;;;71.40;7.80;;;;;;;11.24;84.92;98415.50;5090576;28;20119;-51
2021/12/29 04:17:37;;;;;;;78.45;8.95;;;;;;;11.13;84.59;98418.81;5095026;28;20020;-51
2021/12/29 04:23:09;;;;;;;10.15;8.95;;;;;;;11.09;85.36;98423.66;5095885;28;20086;-51
2021/12/29 04:25:37;;;;;;;19.02;7.50;;;;;;;11.27;85.94;98415.09;5094574;28;20020;-51
2021/12/29 04:28:10;;;;;;;205.55;18.10;;;;;;;11.29;85.56;98410.44;5095860;28;20016;-51
2021/12/29 04:30:36;;;;;;;750.35;59.75;;;;;;;11.30;85.48;98416.47;5095859;28;20042;-51
2021/12/29 04:33:03;;;;;;;7.45;6.13;;;;;;;11.31;85.20;98421.53;5095748;28;20047;-51
2021/12/29 04:35:28;;;;;;;8.70;7.57;;;;;;;11.28;85.31;98424.56;5095518;28;20051;-51
2021/12/29 04:37:54;;;;;;;17.25;11.45;;;;;;;11.31;85.66;98429.41;5095656;28;20020;-51
2021/12/29 04:40:21;;;;;;;10.90;9.00;;;;;;;11.38;85.89;98427.53;5095613;28;20020;-51
2021/12/29 04:42:47;;;;;;;20.20;10.43;;;;;;;11.48;85.84;98418.38;5094183;28;20017;-52
2021/12/29 04:45:14;;;;;;;16.45;8.25;;;;;;;11.51;85.82;98424.03;5094134;28;20475;-51
2021/12/29 04:47:42;;;;;;;31.42;13.68;;;;;;;11.52;85.48;98416.94;5094206;28;20058;-51
2021/12/29 04:50:23;;;;;;;21.70;17.42;;;;;;;11.54;85.81;98418.34;5095367;28;20032;-51
2021/12/29 04:52:49;;;;;;;41.90;31.48;;;;;;;11.61;86.25;98413.06;5095677;28;20500;-51
2021/12/29 04:55:15;;;;;;;22.80;16.90;;;;;;;11.66;86.04;98428.19;5095323;28;20107;-51
2021/12/29 04:57:40;;;;;;;24.77;11.48;;;;;;;11.66;86.16;98426.34;5095257;28;20024;-51
2021/12/29 05:00:07;;;;;;;23.13;18.40;;;;;;;11.69;86.07;98436.44;5095185;28;20020;-51
2021/12/29 05:02:34;;;;;;;513.60;43.30;;;;;;;11.80;86.44;98441.00;5095106;28;20047;-52
2021/12/29 05:05:07;;;;;;;28.00;7.35;;;;;;;11.81;85.92;98449.69;5095096;28;20024;-52
2021/12/29 05:10:18;;;;;;;214.15;20.85;;;;;;;11.63;85.81;98426.78;5095279;28;20096;-52
2021/12/29 05:12:44;;;;;;;373.38;26.95;;;;;;;11.67;85.58;98435.03;5093663;28;20501;-51
2021/12/29 05:15:09;;;;;;;17.23;8.32;;;;;;;11.54;85.35;98442.00;5093586;28;20043;-52
2021/12/29 05:17:35;;;;;;;466.25;34.97;;;;;;;11.41;85.49;98439.47;5094918;28;20024;-51
2021/12/29 05:20:01;;;;;;;218.70;20.83;;;;;;;11.42;86.11;98435.00;5094780;28;20020;-52
2021/12/29 05:22:26;;;;;;;475.58;35.67;;;;;;;11.51;85.77;98431.91;5094761;28;20016;-51
2021/12/29 05:24:52;;;;;;;148.68;14.50;;;;;;;11.52;85.66;98438.78;5094737;28;20020;-51
2021/12/29 05:27:18;;;;;;;180.30;114.20;;;;;;;11.55;86.07;98438.34;5094271;28;20032;-52
2021/12/29 05:29:43;;;;;;;102.70;29.10;;;;;;;11.61;86.30;98447.22;5093372;28;20031;-51
2021/12/29 05:32:09;;;;;;;82.10;16.75;;;;;;;11.62;85.82;98458.53;5094588;28;20024;-51
2021/12/29 05:34:35;;;;;;;17.63;7.70;;;;;;;11.56;85.99;98460.19;5093040;28;20061;-51
2021/12/29 05:37:00;;;;;;;124.80;12.32;;;;;;;11.40;85.47;98454.41;5094537;28;20032;-51
2021/12/29 05:39:26;;;;;;;82.32;6.78;;;;;;;11.33;85.99;98456.28;5094470;28;20039;-52
2021/12/29 05:41:52;;;;;;;232.57;22.55;;;;;;;11.32;85.75;98462.53;5094332;28;20111;-51
2021/12/29 05:44:18;;;;;;;168.52;89.25;;;;;;;11.38;86.17;98469.56;5094368;28;20074;-51
2021/12/29 05:46:44;;;;;;;141.23;12.20;;;;;;;11.40;86.45;98469.38;5094344;28;20077;-51
2021/12/29 05:49:10;;;;;;;371.02;23.90;;;;;;;11.36;86.15;98463.72;5094314;28;20028;-51
2021/12/29 05:51:37;;;;;;;1100.75;63.65;;;;;;;11.34;86.08;98472.84;5094196;28;20507;-51
2021/12/29 05:54:03;;;;;;;637.10;41.55;;;;;;;11.37;86.25;98486.38;5094199;28;20035;-51
2021/12/29 05:56:28;;;;;;;251.18;19.83;;;;;;;11.43;86.08;98486.53;5094424;28;20077;-51
2021/12/29 05:58:59;;;;;;;12.93;8.20;;;;;;;11.40;86.28;98485.13;5094122;28;20110;-51
2021/12/29 06:01:26;;;;;;;55.80;7.72;;;;;;;11.50;86.46;98479.44;5094141;28;20024;-52
2021/12/29 06:03:51;;;;;;;8.38;6.22;;;;;;;11.58;86.62;98479.97;5093940;28;20028;-52
2021/12/29 06:06:17;;;;;;;402.42;27.08;;;;;;;11.53;86.02;98490.31;5092543;28;20070;-51
2021/12/29 06:08:43;;;;;;;25.23;5.72;;;;;;;11.53;85.86;98490.31;5092626;28;20021;-52
2021/12/29 06:11:08;;;;;;;9.73;6.68;;;;;;;11.56;85.94;98491.72;5093833;28;20092;-52
2021/12/29 06:13:34;;;;;;;9.82;7.05;;;;;;;11.54;85.44;98485.88;5093796;28;20020;-51
2021/12/29 06:16:00;;;;;;;352.10;27.45;;;;;;;11.46;85.93;98486.13;5092475;28;20024;-51
2021/12/29 06:18:26;;;;;;;13.70;3.72;;;;;;;11.37;85.79;98493.44;5093744;28;20055;-52
2021/12/29 06:20:51;;;;;;;44.33;6.72;;;;;;;11.33;86.29;98500.16;5093682;28;20485;-51
2021/12/29 06:23:17;;;;;;;432.80;32.53;;;;;;;11.28;86.01;98505.22;5093554;28;20031;-52
2021/12/29 06:25:43;;;;;;;391.58;15.13;;;;;;;11.30;86.32;98495.28;5093589;28;20115;-52
2021/12/29 06:28:09;;;;;;;11.35;9.57;;;;;;;11.25;86.37;98487.22;5093557;28;20017;-51
2021/12/29 06:30:35;;;;;;;1010.88;65.05;;;;;;;11.48;86.84;98491.97;5092194;28;20028;-52
2021/12/29 06:33:00;;;;;;;65.28;8.43;;;;;;;11.57;86.32;98488.09;5092115;28;20028;-52
2021/12/29 06:35:26;;;;;;;37.97;4.75;;;;;;;11.37;85.17;98491.63;5093121;28;20048;-52
2021/12/29 06:37:52;;;;;;;44.42;32.42;;;;;;;11.44;86.33;98491.59;5093380;28;20070;-52
2021/12/29 06:40:18;;;;;;;11.50;7.70;;;;;;;11.52;86.14;98493.97;5092488;28;20031;-52
2021/12/29 06:42:44;;;;;;;47.50;10.35;;;;;;;11.43;85.60;98483.91;5093182;28;20020;-52
2021/12/29 06:45:10;;;;;;;8.18;4.45;;;;;;;11.36;85.69;98497.88;5093188;28;20397;-52
2021/12/29 06:47:36;;;;;;;15.02;9.68;;;;;;;11.33;85.88;98498.31;5091837;28;20472;-51
2021/12/29 06:50:04;;;;;;;219.65;15.60;;;;;;;11.35;85.91;98493.66;5093109;28;20060;-52
2021/12/29 06:52:29;;;;;;;32.72;6.93;;;;;;;11.28;86.06;98500.75;5093088;28;20107;-52
2021/12/29 06:54:55;;;;;;;5.30;4.72;;;;;;;11.25;85.67;98506.44;5093006;28;20508;-52
2021/12/29 06:57:21;;;;;;;6.47;5.68;;;;;;;11.12;85.40;98511.72;5092954;28;20030;-52
2021/12/29 06:59:47;;;;;;;14.55;10.15;;;;;;;11.12;85.44;98511.72;5092941;28;20482;-52
2021/12/29 07:02:14;;;;;;;38.63;7.15;;;;;;;11.11;85.32;98516.19;5091691;28;20086;-52
2021/12/29 07:04:41;;;;;;;29.70;22.77;;;;;;;11.07;85.44;98519.44;5092886;28;20016;-52
2021/12/29 07:07:06;;;;;;;13.20;7.32;;;;;;;11.06;85.49;98528.31;5092830;28;20016;-52
2021/12/29 07:09:32;;;;;;;11.63;8.88;;;;;;;11.06;85.31;98521.25;5091435;28;20085;-52
2021/12/29 07:11:58;;;;;;;51.50;12.48;;;;;;;11.01;85.20;98526.31;5092636;28;20405;-52
2021/12/29 07:14:24;;;;;;;10.07;7.10;;;;;;;11.09;85.37;98523.47;5092695;28;20035;-52
2021/12/29 07:16:50;;;;;;;8.38;5.30;;;;;;;11.24;85.29;98520.56;5092639;28;20020;-52
2021/12/29 07:19:18;;;;;;;7.32;6.10;;;;;;;11.31;85.16;98518.75;5092581;28;20020;-52
2021/12/29 07:21:44;;;;;;;22.67;4.30;;;;;;;11.53;85.69;98521.03;5092533;28;20051;-51
2021/12/29 07:24:10;;;;;;;11.98;6.65;;;;;;;11.53;84.19;98511.34;5091109;28;20039;-52
2021/12/29 07:26:36;;;;;;;58.53;7.97;;;;;;;11.36;83.30;98513.66;5092394;28;20398;-52
2021/12/29 07:29:04;;;;;;;7.88;5.47;;;;;;;11.10;82.87;98511.13;5092389;28;20103;-52
2021/12/29 07:31:30;;;;;;;25.73;7.30;;;;;;;10.99;83.63;98515.22;5091025;28;20149;-51
2021/12/29 07:33:57;;;;;;;18.77;7.57;;;;;;;11.10;84.12;98516.38;5092158;28;20414;-52
2021/12/29 07:36:23;;;;;;;58.53;13.45;;;;;;;11.16;84.15;98510.31;5092297;28;20028;-52
2021/12/29 07:38:49;;;;;;;11.68;8.45;;;;;;;11.22;84.68;98508.66;5092220;28;20016;-52
2021/12/29 07:41:15;;;;;;;15.93;9.80;;;;;;;11.36;85.12;98523.34;5092236;28;20027;-52
2021/12/29 07:43:41;;;;;;;251.95;18.55;;;;;;;11.51;85.08;98529.16;5092116;28;20388;-52
2021/12/29 07:46:07;;;;;;;23.35;11.82;;;;;;;11.57;84.95;98524.88;5092148;28;20073;-52
2021/12/29 07:48:34;;;;;;;78.07;12.50;;;;;;;11.69;85.50;98535.50;5092111;28;20020;-52
2021/12/29 07:51:03;;;;;;;117.53;17.15;;;;;;;11.71;85.31;98522.97;5090737;28;20082;-52
2021/12/29 07:53:29;;;;;;;29.05;7.43;;;;;;;11.73;84.98;98527.00;5092022;28;20082;-52
2021/12/29 07:55:55;;;;;;;199.88;17.67;;;;;;;11.65;84.97;98540.41;5092001;28;20024;-52
2021/12/29 07:58:22;;;;;;;13.07;9.60;;;;;;;11.57;85.42;98538.03;5091994;28;20028;-52
2021/12/29 08:00:50;;;;;;;20.35;5.95;;;;;;;11.70;85.36;98524.78;5091943;28;20572;-52
2021/12/29 08:03:16;;;;;;;16.13;5.93;;;;;;;11.66;85.35;98534.13;5091916;28;20437;-52
2021/12/29 08:05:43;;;;;;;256.92;20.90;;;;;;;11.62;85.56;98553.97;5090547;28;20025;-52
2021/12/29 08:08:10;;;;;;;75.82;9.63;;;;;;;11.60;85.32;98558.63;5090569;28;20051;-52
2021/12/29 08:10:40;;;;;;;197.38;12.45;;;;;;;11.57;84.95;98561.69;5091901;28;20027;-52
2021/12/29 08:13:07;;;;;;;17.85;7.43;;;;;;;11.39;84.78;98565.00;5091916;28;20044;-52
2021/12/29 08:15:33;;;;;;;26.85;6.20;;;;;;;11.34;85.11;98568.22;5091860;28;20024;-52
2021/12/29 08:18:04;;;;;;;417.13;28.33;;;;;;;11.34;85.00;98567.41;5091819;28;20023;-52
2021/12/29 08:20:32;;;;;;;200.45;16.58;;;;;;;11.20;84.48;98570.09;5091787;28;20039;-52
2021/12/29 08:22:59;;;;;;;40.33;5.88;;;;;;;11.10;84.96;98569.72;5091910;28;20032;-51
2021/12/29 08:25:25;;;;;;;15.23;9.30;;;;;;;11.06;85.55;98572.97;5091752;28;20497;-51
2021/12/29 08:27:51;;;;;;;10.25;4.10;;;;;;;11.22;85.76;98572.50;5091666;28;20110;-51
2021/12/29 08:30:16;;;;;;;32.60;20.48;;;;;;;11.28;86.04;98560.38;5091680;28;20446;-52
2021/12/29 08:32:42;;;;;;;160.13;16.50;;;;;;;11.39;85.85;98563.16;5091649;28;20027;-51
2021/12/29 08:35:09;;;;;;;14.02;6.07;;;;;;;11.40;85.42;98570.00;5091436;28;20122;-52
2021/12/29 08:37:35;;;;;;;336.23;24.02;;;;;;;11.40;85.75;98569.22;5091636;28;20024;-51
2021/12/29 08:40:03;;;;;;;1197.30;86.03;;;;;;;11.42;85.78;98563.75;5091557;28;20434;-51
2021/12/29 08:42:29;;;;;;;1116.05;72.38;;;;;;;11.47;85.42;98562.13;5091488;28;20016;-51
2021/12/29 08:44:55;;;;;;;64.43;9.48;;;;;;;11.49;85.54;98556.63;5091579;28;20021;-51
2021/12/29 08:47:20;;;;;;;678.83;50.50;;;;;;;11.50;85.79;98559.06;5091524;28;20020;-51
2021/12/29 08:49:46;;;;;;;326.02;25.65;;;;;;;11.58;85.76;98560.66;5090178;28;20394;-51
2021/12/29 08:52:12;;;;;;;11.20;7.13;;;;;;;11.61;85.59;98549.72;5091581;28;20029;-52
2021/12/29 08:54:37;;;;;;;494.38;34.58;;;;;;;11.65;86.11;98545.66;5091479;28;20027;-51
2021/12/29 08:57:05;;;;;;;503.08;319.50;;;;;;;11.76;86.36;98544.19;5090283;28;20303;-51
2021/12/29 08:59:32;;;;;;;75.32;35.72;;;;;;;11.80;85.77;98543.53;5091552;28;20020;-51
2021/12/29 09:01:58;;;;;;;1448.40;285.63;;;;;;;11.84;85.74;98546.56;5091672;28;20059;-52
2021/12/29 09:04:24;;;;;;;167.45;97.97;;;;;;;11.93;85.68;98540.06;5095179;28;20604;-51
2021/12/29 09:06:51;;;;;;;16.92;12.43;;;;;;;12.07;86.07;98535.50;5095147;28;20047;-52
2021/12/29 09:09:18;;;;;;;19.50;10.05;;;;;;;12.13;86.13;98542.56;5095082;28;20023;-52
2021/12/29 09:11:44;;;;;;;14.93;10.88;;;;;;;12.16;86.00;98531.59;5095286;28;20390;-52
2021/12/29 09:14:10;;;;;;;13.15;8.23;;;;;;;12.16;85.88;98522.91;5095030;28;20024;-52
2021/12/29 09:16:36;;;;;;;26.58;20.50;;;;;;;12.29;86.02;98519.34;5094986;28;20055;-52
2021/12/29 09:19:02;;;;;;;11.52;6.55;;;;;;;12.36;85.80;98514.84;5094932;28;20506;-51
2021/12/29 09:21:29;;;;;;;8.07;6.75;;;;;;;12.40;85.45;98516.03;5094887;28;20547;-51
2021/12/29 09:23:55;;;;;;;13.68;9.77;;;;;;;12.44;85.56;98511.94;5094763;28;20020;-51
2021/12/29 09:26:21;;;;;;;26.42;15.00;;;;;;;12.55;86.12;98505.94;5094706;28;20031;-52
2021/12/29 09:28:49;;;;;;;35.22;9.80;;;;;;;12.59;85.31;98509.75;5094947;28;20024;-51
2021/12/29 09:31:16;;;;;;;9.77;6.88;;;;;;;12.53;85.14;98510.63;5094949;28;20404;-51
2021/12/29 09:33:43;;;;;;;57.78;8.77;;;;;;;12.52;85.22;98519.56;5092902;28;20563;-52
2021/12/29 09:36:09;;;;;;;29.55;7.40;;;;;;;12.37;84.99;98505.91;5093452;28;20490;-52
2021/12/29 09:38:40;;;;;;;7.32;5.78;;;;;;;12.23;85.12;98509.69;5092164;28;20020;-51
2021/12/29 09:41:12;;;;;;;16.70;6.50;;;;;;;12.17;84.84;98519.25;5093349;28;20062;-51
2021/12/29 09:43:38;;;;;;;46.97;7.18;;;;;;;12.03;85.07;98536.94;5093279;28;20062;-51
2021/12/29 09:46:06;;;;;;;84.38;9.35;;;;;;;12.05;85.26;98548.06;5093260;28;20039;-51
2021/12/29 09:48:32;;;;;;;140.85;12.60;;;;;;;11.98;84.76;98566.53;5092057;28;20020;-52
2021/12/29 09:50:59;;;;;;;32.55;5.82;;;;;;;11.92;85.04;98593.66;5091799;28;20047;-51
2021/12/29 09:53:24;;;;;;;6.28;4.30;;;;;;;11.80;84.28;98608.47;5093228;28;20050;-51
2021/12/29 09:55:50;;;;;;;6.88;4.43;;;;;;;11.64;84.69;98593.97;5093055;28;20375;-51
2021/12/29 09:58:18;;;;;;;6.07;3.50;;;;;;;11.57;85.44;98575.63;5093060;28;20032;-51
2021/12/29 10:00:47;;;;;;;17.20;6.22;;;;;;;11.57;85.14;98596.66;5091748;28;20519;-51
2021/12/29 10:03:16;;;;;;;9.90;5.90;;;;;;;11.63;85.77;98581.88;5091676;28;20060;-51
2021/12/29 10:05:44;;;;;;;10.30;4.30;;;;;;;11.63;85.66;98595.00;5091697;28;20417;-51
2021/12/29 10:08:20;;;;;;;7.90;4.85;;;;;;;11.55;85.21;98595.22;5092919;28;20028;-51
2021/12/29 10:10:49;;;;;;;9.93;5.10;;;;;;;11.52;85.05;98595.66;5091589;28;20039;-51
2021/12/29 10:13:16;;;;;;;248.02;19.60;;;;;;;11.48;85.49;98594.47;5092357;28;20028;-51
2021/12/29 10:15:50;;;;;;;9.13;4.22;;;;;;;11.50;86.31;98606.38;5092113;28;20023;-51
2021/12/29 10:18:23;;;;;;;61.70;6.03;;;;;;;11.57;86.57;98595.84;5091490;28;20555;-52
2021/12/29 10:20:52;;;;;;;884.92;63.58;;;;;;;11.75;86.86;98603.84;5092717;28;20040;-52
2021/12/29 10:23:40;;;;;;;266.15;21.05;;;;;;;11.94;86.91;98585.56;5092579;28;20451;-51
2021/12/29 10:26:18;;;;;;;450.90;34.22;;;;;;;12.03;87.06;98579.03;5092686;28;20032;-51
2021/12/29 10:28:51;;;;;;;59.92;6.72;;;;;;;12.07;86.88;98559.16;5092733;28;20039;-51
2021/12/29 10:31:22;;;;;;;163.70;17.55;;;;;;;12.02;86.24;98553.75;5091247;28;20576;-51
2021/12/29 10:33:51;;;;;;;492.20;32.30;;;;;;;11.92;85.78;98554.22;5041516;28;1451157;-51
2021/12/29 10:36:27;;;;;;;1094.30;91.13;;;;;;;11.84;85.55;98553.66;5093325;28;20040;-51
2021/12/29 10:39:17;;;;;;;90.65;36.05;;;;;;;11.78;86.05;98548.19;5093427;28;20036;-51
2021/12/29 10:42:06;;;;;;;47.92;19.00;;;;;;;11.80;86.14;98540.09;5092026;28;20024;-51
2021/12/29 10:44:52;;;;;;;54.53;14.23;;;;;;;11.90;87.07;98522.06;5093289;28;20446;-51
2021/12/29 10:47:27;;;;;;;168.07;49.67;;;;;;;11.95;86.76;98524.06;5093221;28;20036;-51
2021/12/29 10:49:57;;;;;;;1999.90;999.90;;;;;;;11.96;86.47;98502.81;5093175;28;20028;-51
2021/12/29 10:52:40;;;;;;;934.03;487.70;;;;;;;11.99;86.61;98486.63;5093039;28;20619;-51
2021/12/29 10:55:14;;;;;;;339.95;200.45;;;;;;;11.98;86.30;98519.19;5093128;28;20402;-51
2021/12/29 10:57:40;;;;;;;352.88;260.90;;;;;;;12.08;86.56;98499.50;5091709;28;20062;-51
2021/12/29 11:00:14;;;;;;;291.67;86.88;;;;;;;12.34;87.52;98501.09;5092917;28;20103;-52
2021/12/29 11:02:40;;;;;;;45.45;15.27;;;;;;;12.48;86.88;98504.44;5092977;28;20081;-51
2021/12/29 11:05:10;;;;;;;27.00;9.13;;;;;;;12.55;87.20;98511.22;5091500;28;20020;-51
2021/12/29 11:07:39;;;;;;;24.58;8.65;;;;;;;12.76;87.74;98517.91;5091556;28;20451;-51
2021/12/29 11:10:20;;;;;;;38.05;11.82;;;;;;;12.99;88.18;98524.34;5092729;28;20031;-52
2021/12/29 11:12:54;;;;;;;11.35;5.25;;;;;;;13.21;87.68;98516.00;5091753;28;20031;-52
2021/12/29 11:15:26;;;;;;;24.17;12.45;;;;;;;13.31;87.56;98519.75;5092635;28;20020;-51
2021/12/29 11:17:54;;;;;;;38.55;27.42;;;;;;;13.16;86.87;98535.91;5092650;28;20027;-51
2021/12/29 11:20:23;;;;;;;20.27;7.97;;;;;;;12.94;86.14;98527.66;5092568;28;20057;-51
2021/12/29 11:22:51;;;;;;;24.48;6.63;;;;;;;12.99;87.21;98519.88;5092494;28;20028;-51
2021/12/29 11:25:28;;;;;;;2.35;0.73;;;;;;;13.09;87.22;98513.31;5092172;28;20024;-51
2021/12/29 11:27:53;;;;;;;7.00;4.28;;;;;;;13.24;87.57;98521.63;5092604;28;20027;-52
2021/12/29 11:30:20;;;;;;;18.52;5.13;;;;;;;13.49;87.72;98534.72;5092416;28;20100;-52